Time;durP1;ratioP1;P1;durP2;ratioP2;P2;SDS_P1;SDS_P2;PMS_P1;PMS_P2;Temp;Humidity;BMP_temperature;BMP_pressure;BME280_temperature;BME280_humidity;BME280_pressure;Samples;Min_cycle;Max_cycle;Signal;HPM_P1;HPM_P2
2022/05/05 00:00:54;;;;;;;12.80;5.18;;;7.30;99.90;;;;;;5061463;28;20126;-68
2022/05/05 00:03:20;;;;;;;10.57;5.75;;;7.30;99.90;;;;;;5043464;28;20045;-68
2022/05/05 00:05:45;;;;;;;13.20;5.47;;;7.30;99.90;;;;;;5065790;28;20064;-68
2022/05/05 00:08:11;;;;;;;11.00;5.18;;;7.20;99.90;;;;;;5068825;28;20044;-68
2022/05/05 00:16:07;;;;;;;10.07;5.20;;;7.20;99.90;;;;;;5062563;28;19947;-68
2022/05/05 00:18:33;;;;;;;11.25;5.20;;;7.10;99.90;;;;;;5064912;28;20040;-68
2022/05/05 00:20:58;;;;;;;12.60;5.68;;;7.10;99.90;;;;;;5068069;28;20044;-68
2022/05/05 00:23:24;;;;;;;9.63;4.50;;;7.10;99.90;;;;;;5069146;28;20408;-68
2022/05/05 00:25:50;;;;;;;9.25;5.72;;;7.10;99.90;;;;;;5068648;28;20218;-68
2022/05/05 00:28:15;;;;;;;10.68;5.68;;;7.10;99.90;;;;;;5067000;28;20135;-68
2022/05/05 00:30:41;;;;;;;11.15;5.43;;;7.10;99.90;;;;;;5069065;28;20036;-68
2022/05/05 00:33:07;;;;;;;9.85;5.25;;;7.10;99.90;;;;;;5066694;28;20603;-68
2022/05/05 00:35:32;;;;;;;10.57;4.78;;;7.00;99.90;;;;;;5067374;28;20071;-67
2022/05/05 00:37:58;;;;;;;13.95;5.80;;;7.00;99.90;;;;;;5069039;28;20503;-67
2022/05/05 00:40:24;;;;;;;11.20;6.22;;;7.00;99.90;;;;;;5068557;28;20476;-67
2022/05/05 00:42:50;;;;;;;11.32;6.18;;;7.10;99.90;;;;;;5066890;28;20442;-67
2022/05/05 00:45:16;;;;;;;13.57;6.63;;;7.00;99.90;;;;;;5068221;28;20036;-68
2022/05/05 00:47:42;;;;;;;8.50;4.93;;;7.00;99.90;;;;;;5066133;28;20037;-68
2022/05/05 00:50:08;;;;;;;11.30;5.72;;;6.90;99.90;;;;;;5069182;28;20043;-67
2022/05/05 00:52:34;;;;;;;10.07;5.75;;;6.90;99.90;;;;;;5066841;28;20053;-67
2022/05/05 00:55:00;;;;;;;10.50;5.97;;;6.90;99.90;;;;;;5065934;28;20033;-67
2022/05/05 00:57:27;;;;;;;13.50;5.55;;;6.90;99.90;;;;;;5077806;28;20595;-68
2022/05/05 00:59:55;;;;;;;8.68;5.15;;;6.90;99.90;;;;;;5070587;28;20052;-68
2022/05/05 01:02:21;;;;;;;12.23;5.30;;;6.90;99.90;;;;;;5069589;28;20071;-68
2022/05/05 01:04:47;;;;;;;9.00;5.65;;;6.80;99.90;;;;;;5070515;28;20367;-68
2022/05/05 01:07:16;;;;;;;11.77;5.00;;;6.80;99.90;;;;;;5071276;28;20055;-68
2022/05/05 01:09:41;;;;;;;12.50;5.35;;;6.80;99.90;;;;;;5089066;28;20430;-67
2022/05/05 01:12:08;;;;;;;7.20;4.85;;;6.80;99.90;;;;;;5070474;28;20051;-67
2022/05/05 01:14:34;;;;;;;10.07;5.03;;;6.80;99.90;;;;;;5070110;28;20040;-67
2022/05/05 01:17:00;;;;;;;11.63;5.47;;;6.80;99.90;;;;;;5052822;28;20087;-68
2022/05/05 01:19:26;;;;;;;12.90;5.28;;;6.70;99.90;;;;;;5073505;28;20047;-68
2022/05/05 01:21:55;;;;;;;13.38;5.70;;;6.80;99.90;;;;;;5055185;28;20056;-67
2022/05/05 01:29:54;;;;;;;11.07;5.13;;;6.80;99.90;;;;;;5073265;28;20051;-67
2022/05/05 01:32:20;;;;;;;10.93;5.75;;;6.70;99.90;;;;;;5055952;28;20052;-67
2022/05/05 01:34:47;;;;;;;8.15;5.20;;;6.70;99.90;;;;;;5071769;28;20140;-67
2022/05/05 01:37:13;;;;;;;10.32;5.07;;;6.70;99.90;;;;;;5071511;28;20037;-68
2022/05/05 01:39:38;;;;;;;10.00;5.68;;;6.70;99.90;;;;;;5088440;28;20123;-68
2022/05/05 01:42:05;;;;;;;13.85;5.53;;;6.70;99.90;;;;;;5073706;28;20184;-67
2022/05/05 01:44:30;;;;;;;10.68;5.35;;;6.70;99.90;;;;;;5091974;28;20135;-67
2022/05/05 01:46:56;;;;;;;11.75;6.15;;;6.60;99.90;;;;;;5070953;28;20040;-67
2022/05/05 01:49:22;;;;;;;10.45;6.25;;;6.60;99.90;;;;;;5070112;28;20119;-68
2022/05/05 01:51:48;;;;;;;9.65;5.50;;;6.60;99.90;;;;;;5093225;28;20127;-68
2022/05/05 01:54:14;;;;;;;11.57;5.80;;;6.60;99.90;;;;;;5091363;28;20047;-68
2022/05/05 01:56:39;;;;;;;9.77;6.45;;;6.60;99.90;;;;;;5073303;28;20052;-68
2022/05/05 01:59:06;;;;;;;13.63;6.60;;;6.60;99.90;;;;;;5091398;28;20040;-68
2022/05/05 02:01:33;;;;;;;11.60;7.05;;;6.60;99.90;;;;;;5073711;28;20162;-68
2022/05/05 02:04:00;;;;;;;13.93;6.43;;;6.50;99.90;;;;;;5073409;28;20069;-68
2022/05/05 02:06:26;;;;;;;14.45;6.80;;;6.50;99.90;;;;;;5091079;28;20035;-68
2022/05/05 02:08:52;;;;;;;10.77;6.55;;;6.50;99.90;;;;;;5090714;28;20241;-66
2022/05/05 02:11:18;;;;;;;11.35;6.88;;;6.50;99.90;;;;;;5074429;28;20044;-67
2022/05/05 02:13:43;;;;;;;13.98;7.68;;;6.50;99.90;;;;;;5094169;28;20032;-68
2022/05/05 02:16:09;;;;;;;13.77;6.80;;;6.50;99.90;;;;;;5057403;28;20032;-68
2022/05/05 02:18:35;;;;;;;12.95;6.78;;;6.50;99.90;;;;;;5090864;28;20328;-68
2022/05/05 02:21:01;;;;;;;12.63;7.32;;;6.50;99.90;;;;;;5075144;28;20067;-68
2022/05/05 02:23:26;;;;;;;16.92;6.85;;;6.50;99.90;;;;;;5090373;28;20046;-68
2022/05/05 02:25:53;;;;;;;16.75;8.05;;;6.50;99.90;;;;;;5072736;28;20119;-68
2022/05/05 02:28:18;;;;;;;10.98;7.03;;;6.50;99.90;;;;;;5089989;28;20094;-68
2022/05/05 02:30:45;;;;;;;15.50;7.10;;;6.40;99.90;;;;;;5070934;28;20448;-68
2022/05/05 02:33:11;;;;;;;11.68;7.07;;;6.50;99.90;;;;;;5090564;28;20068;-68
2022/05/05 02:35:36;;;;;;;13.15;7.47;;;6.50;99.90;;;;;;5090592;28;20075;-68
2022/05/05 02:40:47;;;;;;;15.43;7.80;;;6.50;99.90;;;;;;5072618;28;20117;-68
2022/05/05 02:43:12;;;;;;;13.38;7.13;;;6.40;99.90;;;;;;5072845;28;20475;-68
2022/05/05 02:45:38;;;;;;;11.50;7.53;;;6.50;99.90;;;;;;5072701;28;20259;-68
2022/05/05 02:48:04;;;;;;;15.15;8.20;;;6.40;99.90;;;;;;5090583;28;20122;-68
2022/05/05 02:50:31;;;;;;;15.23;7.13;;;6.40;99.90;;;;;;5071434;28;20468;-68
2022/05/05 02:52:56;;;;;;;10.65;7.60;;;6.40;99.90;;;;;;5072056;28;20398;-67
2022/05/05 02:55:23;;;;;;;9.65;8.30;;;6.40;99.90;;;;;;5089056;28;20028;-67
2022/05/05 02:57:49;;;;;;;12.15;7.72;;;6.40;99.90;;;;;;5072007;28;20415;-67
2022/05/05 03:00:15;;;;;;;11.32;8.13;;;6.20;99.90;;;;;;5089706;28;20043;-67
2022/05/05 03:02:42;;;;;;;12.40;8.15;;;6.30;99.90;;;;;;5072335;28;20044;-67
2022/05/05 03:05:09;;;;;;;11.85;7.47;;;6.30;99.90;;;;;;5069140;28;20449;-66
2022/05/05 03:07:35;;;;;;;15.02;7.95;;;6.30;99.90;;;;;;5089656;28;20096;-67
2022/05/05 03:10:01;;;;;;;11.15;7.55;;;6.20;99.90;;;;;;5091343;28;20031;-68
2022/05/05 03:12:27;;;;;;;15.50;8.70;;;6.30;99.90;;;;;;5055472;28;20040;-68
2022/05/05 03:14:53;;;;;;;10.30;7.55;;;6.20;99.90;;;;;;5089077;28;20043;-68
2022/05/05 03:17:19;;;;;;;11.77;8.00;;;6.20;99.90;;;;;;5070861;28;20131;-68
2022/05/05 03:19:45;;;;;;;13.60;8.05;;;6.20;99.90;;;;;;5072337;28;20123;-68
2022/05/05 03:22:11;;;;;;;15.63;8.50;;;6.20;99.90;;;;;;5089832;28;20055;-68
2022/05/05 03:24:36;;;;;;;13.82;8.65;;;6.20;99.90;;;;;;5070542;28;20140;-68
2022/05/05 03:27:03;;;;;;;11.80;8.52;;;6.20;99.90;;;;;;5071197;28;20047;-68
2022/05/05 03:29:29;;;;;;;13.55;8.80;;;6.20;99.90;;;;;;5054010;28;20035;-68
2022/05/05 03:31:54;;;;;;;16.08;8.63;;;6.20;99.90;;;;;;5086712;28;20043;-68
2022/05/05 03:34:20;;;;;;;13.40;9.32;;;6.30;99.90;;;;;;5070578;28;20042;-68
2022/05/05 03:36:46;;;;;;;16.63;8.93;;;6.20;99.90;;;;;;5088033;28;20044;-67
2022/05/05 03:39:12;;;;;;;17.25;10.00;;;6.20;99.90;;;;;;5089408;28;20119;-67
2022/05/05 03:41:37;;;;;;;12.93;9.10;;;6.20;99.90;;;;;;5089321;28;20523;-67
2022/05/05 03:44:05;;;;;;;15.77;9.20;;;6.20;99.90;;;;;;5071177;28;20036;-67
2022/05/05 03:46:31;;;;;;;15.55;9.57;;;6.20;99.90;;;;;;5088800;28;20054;-67
2022/05/05 03:48:57;;;;;;;14.80;8.63;;;6.20;99.90;;;;;;5070411;28;20504;-67
2022/05/05 03:51:22;;;;;;;14.82;9.80;;;6.20;99.90;;;;;;5056723;28;20040;-67
2022/05/05 03:53:48;;;;;;;13.80;9.05;;;6.20;99.90;;;;;;5088732;28;20115;-67
2022/05/05 03:56:14;;;;;;;14.93;10.10;;;6.10;99.90;;;;;;5070754;28;20304;-68
2022/05/05 03:58:40;;;;;;;17.33;9.70;;;6.10;99.90;;;;;;5070230;28;20055;-68
2022/05/05 04:01:05;;;;;;;17.02;9.73;;;6.10;99.90;;;;;;5087931;28;20090;-67
2022/05/05 04:03:31;;;;;;;14.10;10.27;;;6.10;99.90;;;;;;5090010;28;20119;-67
2022/05/05 04:06:02;;;;;;;19.73;9.90;;;6.10;99.90;;;;;;5070475;28;20075;-66
2022/05/05 04:08:28;;;;;;;16.95;10.25;;;6.10;99.90;;;;;;5068358;28;20451;-66
2022/05/05 04:10:54;;;;;;;16.77;10.05;;;6.00;99.90;;;;;;5070725;28;20048;-67
2022/05/05 04:13:20;;;;;;;19.10;10.40;;;6.00;99.90;;;;;;5088674;28;20024;-67
2022/05/05 04:15:46;;;;;;;13.93;9.65;;;6.10;99.90;;;;;;5070959;28;20109;-67
2022/05/05 04:18:12;;;;;;;17.33;10.55;;;6.00;99.90;;;;;;5087857;28;20152;-67
2022/05/05 04:20:39;;;;;;;13.80;9.63;;;6.00;99.90;;;;;;5071628;28;20107;-67
2022/05/05 04:23:05;;;;;;;15.07;9.75;;;6.00;99.90;;;;;;5068104;28;20495;-67
2022/05/05 04:25:33;;;;;;;17.23;10.60;;;6.00;99.90;;;;;;5089206;28;20103;-67
2022/05/05 04:27:58;;;;;;;14.35;10.45;;;5.90;99.90;;;;;;5052689;28;20176;-68
2022/05/05 04:30:24;;;;;;;13.25;9.60;;;6.00;99.90;;;;;;5070364;28;20035;-67
2022/05/05 04:32:51;;;;;;;15.57;10.48;;;5.90;99.90;;;;;;5088461;28;20036;-68
2022/05/05 04:35:17;;;;;;;15.13;10.57;;;5.90;99.90;;;;;;5053932;28;20077;-68
2022/05/05 04:37:43;;;;;;;13.65;9.77;;;5.90;99.90;;;;;;5068732;28;20044;-68
2022/05/05 04:40:10;;;;;;;14.50;10.73;;;5.80;99.90;;;;;;5089077;28;20123;-68
2022/05/05 04:42:37;;;;;;;12.60;10.15;;;5.90;99.90;;;;;;5070042;28;20125;-68
2022/05/05 04:45:04;;;;;;;14.13;10.60;;;5.90;99.90;;;;;;5070483;28;20048;-68
2022/05/05 04:47:31;;;;;;;17.85;10.35;;;5.90;99.90;;;;;;5069727;28;20135;-68
2022/05/05 04:49:57;;;;;;;18.48;11.18;;;5.80;99.90;;;;;;5069300;28;20048;-68
2022/05/05 04:52:27;;;;;;;13.95;9.88;;;5.80;99.90;;;;;;5071750;28;20164;-68
2022/05/05 04:54:52;;;;;;;12.98;9.60;;;5.80;99.90;;;;;;5093342;28;20114;-68
2022/05/05 04:57:18;;;;;;;16.52;10.57;;;5.80;99.90;;;;;;5074596;28;20164;-67
2022/05/05 04:59:44;;;;;;;17.00;9.88;;;5.90;99.90;;;;;;5074486;28;20083;-67
2022/05/05 05:02:10;;;;;;;18.48;12.52;;;5.90;99.90;;;;;;5053208;28;20036;-67
2022/05/05 05:04:35;;;;;;;13.20;10.73;;;5.90;99.90;;;;;;5072291;28;20047;-68
2022/05/05 05:07:01;;;;;;;17.27;11.45;;;5.90;99.90;;;;;;5055382;28;20427;-68
2022/05/05 05:09:27;;;;;;;19.90;11.77;;;6.00;99.90;;;;;;5074892;28;20058;-68
2022/05/05 05:11:52;;;;;;;16.17;11.48;;;6.00;99.90;;;;;;5091863;28;20043;-68
2022/05/05 05:14:18;;;;;;;18.17;10.80;;;6.10;99.90;;;;;;5056904;28;20068;-68
2022/05/05 05:16:44;;;;;;;13.73;10.85;;;6.20;99.90;;;;;;5092255;28;20380;-68
2022/05/05 05:19:09;;;;;;;13.40;11.02;;;6.20;99.90;;;;;;5054393;28;20124;-68
2022/05/05 05:21:35;;;;;;;13.38;9.90;;;6.30;99.90;;;;;;5058055;28;20063;-68
2022/05/05 05:24:02;;;;;;;18.65;12.70;;;6.40;99.90;;;;;;5073900;28;20048;-68
2022/05/05 05:26:28;;;;;;;12.80;11.18;;;6.50;99.90;;;;;;5074214;28;20055;-68
2022/05/05 05:28:54;;;;;;;19.02;10.32;;;6.60;99.90;;;;;;5075884;28;20044;-68
2022/05/05 05:31:21;;;;;;;16.67;12.05;;;6.70;99.90;;;;;;5093185;28;20052;-66
2022/05/05 05:33:47;;;;;;;15.40;10.68;;;6.90;99.90;;;;;;5092360;28;20044;-67
2022/05/05 05:36:14;;;;;;;16.25;11.18;;;7.00;99.90;;;;;;5075419;28;20369;-67
2022/05/05 05:38:40;;;;;;;16.42;11.25;;;6.90;99.90;;;;;;5073529;28;20116;-68
2022/05/05 05:41:05;;;;;;;16.65;11.15;;;7.10;99.90;;;;;;5075854;28;20460;-67
2022/05/05 05:43:31;;;;;;;15.38;11.90;;;7.30;99.90;;;;;;5094136;28;20040;-67
2022/05/05 05:45:57;;;;;;;17.35;10.90;;;7.50;99.90;;;;;;5075980;28;20181;-67
2022/05/05 05:48:22;;;;;;;20.05;11.13;;;7.60;99.90;;;;;;5073239;28;20055;-67
2022/05/05 05:50:48;;;;;;;15.13;11.23;;;7.70;99.90;;;;;;5092638;28;20043;-68
2022/05/05 05:53:14;;;;;;;18.40;11.70;;;7.80;99.90;;;;;;5092925;28;20085;-67
2022/05/05 05:55:39;;;;;;;15.20;10.77;;;7.90;99.90;;;;;;5089835;28;20069;-68
2022/05/05 05:58:05;;;;;;;15.35;10.82;;;8.00;99.90;;;;;;5074989;28;20412;-68
2022/05/05 06:00:32;;;;;;;15.45;11.68;;;8.20;99.90;;;;;;5094149;28;20444;-68
2022/05/05 06:05:42;;;;;;;15.68;11.13;;;8.30;99.90;;;;;;5092268;28;20129;-68
2022/05/05 06:08:08;;;;;;;19.33;10.38;;;8.30;99.90;;;;;;5089889;28;20463;-68
2022/05/05 06:10:36;;;;;;;14.18;10.75;;;8.40;99.90;;;;;;5074193;28;20051;-68
2022/05/05 06:13:02;;;;;;;17.52;11.73;;;8.40;99.90;;;;;;5074446;28;20068;-68
2022/05/05 06:15:28;;;;;;;13.68;10.45;;;8.50;99.90;;;;;;5074643;28;20123;-68
2022/05/05 06:17:54;;;;;;;16.85;11.30;;;8.70;99.90;;;;;;5088838;28;20257;-68
2022/05/05 06:20:20;;;;;;;21.58;10.63;;;9.00;99.90;;;;;;5090644;28;20120;-68
2022/05/05 06:22:46;;;;;;;14.07;10.32;;;9.10;99.90;;;;;;5070206;28;20143;-68
2022/05/05 06:25:12;;;;;;;16.88;10.48;;;9.30;99.90;;;;;;5054833;28;20115;-68
2022/05/05 06:27:38;;;;;;;15.65;10.73;;;9.60;99.90;;;;;;5055201;28;20329;-68
2022/05/05 06:30:06;;;;;;;17.80;10.00;;;9.80;99.90;;;;;;5073862;28;20047;-68
2022/05/05 06:32:32;;;;;;;15.98;10.32;;;10.00;99.90;;;;;;5070056;28;20063;-67
2022/05/05 06:34:58;;;;;;;12.75;9.65;;;10.20;99.90;;;;;;5071381;28;20383;-67
2022/05/05 06:37:24;;;;;;;15.13;9.57;;;10.40;99.90;;;;;;5071934;28;20510;-68
2022/05/05 06:39:50;;;;;;;13.85;9.45;;;10.60;99.90;;;;;;5090734;28;20181;-67
2022/05/05 06:42:17;;;;;;;15.15;10.50;;;10.70;99.90;;;;;;5072249;28;20491;-68
2022/05/05 06:44:42;;;;;;;18.30;9.80;;;10.90;99.90;;;;;;5091375;28;20059;-67
2022/05/05 06:47:08;;;;;;;10.90;9.00;;;11.10;99.90;;;;;;5073444;28;20462;-67
2022/05/05 06:49:35;;;;;;;13.23;9.60;;;11.30;99.90;;;;;;5071911;28;20044;-67
2022/05/05 06:52:00;;;;;;;13.35;9.20;;;11.50;99.90;;;;;;5073185;28;20329;-67
2022/05/05 06:54:27;;;;;;;14.40;8.45;;;11.70;99.90;;;;;;5071996;28;20131;-68
2022/05/05 06:56:54;;;;;;;15.07;8.95;;;11.90;99.90;;;;;;5070938;28;20454;-67
2022/05/05 06:59:19;;;;;;;12.35;9.25;;;12.10;99.90;;;;;;5072221;28;20048;-67
2022/05/05 07:01:56;;;;;;;13.32;8.52;;;12.30;99.90;;;;;;5090184;28;20044;-67
2022/05/05 07:07:11;;;;;;;10.98;9.82;;;12.50;99.90;;;;;;5089168;28;20468;-67
2022/05/05 07:12:22;;;;;;;15.98;9.02;;;12.60;99.70;;;;;;5088942;28;20499;-67
2022/05/05 07:14:47;;;;;;;15.18;9.20;;;12.70;99.90;;;;;;5070085;28;20040;-67
2022/05/05 07:17:14;;;;;;;14.90;8.70;;;12.90;99.40;;;;;;5090785;28;20036;-67
2022/05/05 07:19:40;;;;;;;14.77;8.18;;;13.40;99.10;;;;;;5071613;28;20131;-68
2022/05/05 07:22:07;;;;;;;13.38;7.72;;;13.90;98.60;;;;;;5090948;28;20047;-68
2022/05/05 07:24:33;;;;;;;15.07;8.43;;;14.30;97.40;;;;;;5071325;28;20087;-68
2022/05/05 07:26:59;;;;;;;14.27;7.10;;;14.60;96.80;;;;;;5091438;28;20075;-68
2022/05/05 07:29:25;;;;;;;13.45;6.15;;;14.90;95.00;;;;;;5091804;28;20035;-68
2022/05/05 07:31:51;;;;;;;12.15;6.20;;;15.30;92.60;;;;;;5091826;28;20133;-68
2022/05/05 07:34:18;;;;;;;12.88;6.05;;;15.50;92.60;;;;;;5071972;28;20051;-67
2022/05/05 07:36:44;;;;;;;9.20;5.80;;;15.70;91.10;;;;;;5090653;28;20080;-67
2022/05/05 07:39:10;;;;;;;13.50;5.50;;;15.90;87.90;;;;;;5072521;28;20077;-67
2022/05/05 07:41:36;;;;;;;8.82;4.70;;;16.20;89.10;;;;;;5071767;28;20055;-67
2022/05/05 07:44:04;;;;;;;11.00;4.85;;;16.40;85.70;;;;;;5089595;28;20055;-67
2022/05/05 07:46:30;;;;;;;10.02;5.05;;;16.70;85.10;;;;;;5054435;28;20122;-68
2022/05/05 07:48:56;;;;;;;10.63;4.25;;;16.90;81.20;;;;;;5088699;28;20131;-68
2022/05/05 07:51:21;;;;;;;8.70;4.30;;;17.10;80.10;;;;;;5090665;28;20071;-68
2022/05/05 07:54:34;;;;;;;8.60;4.13;;;17.30;79.60;;;;;;5071455;28;20559;-68
2022/05/05 07:56:33;;;;;;;12.00;4.78;;;17.50;76.80;;;;;;5089382;28;20139;-67
2022/05/05 07:58:58;;;;;;;9.35;4.75;;;17.70;75.40;;;;;;5088396;28;20469;-67
2022/05/05 08:01:24;;;;;;;8.32;4.20;;;17.60;73.00;;;;;;5090157;28;20047;-68
2022/05/05 08:03:50;;;;;;;9.48;4.32;;;17.50;70.60;;;;;;5071171;28;20051;-68
2022/05/05 08:06:15;;;;;;;13.77;4.85;;;17.40;69.80;;;;;;5088919;28;20051;-68
2022/05/05 08:08:41;;;;;;;11.95;4.57;;;17.40;72.40;;;;;;5089448;28;20440;-68
2022/05/05 08:11:07;;;;;;;7.95;3.28;;;17.50;72.90;;;;;;5068721;28;20047;-68
2022/05/05 08:13:33;;;;;;;9.52;4.15;;;17.50;68.20;;;;;;5085604;28;20128;-68
2022/05/05 08:15:58;;;;;;;9.15;4.28;;;17.60;68.70;;;;;;5087357;28;20533;-68
2022/05/05 08:18:24;;;;;;;8.77;4.45;;;17.50;68.90;;;;;;5068475;28;20036;-68
2022/05/05 08:20:51;;;;;;;6.78;4.00;;;17.50;68.10;;;;;;5086748;28;20271;-68
2022/05/05 08:23:17;;;;;;;10.90;4.13;;;17.60;67.00;;;;;;5070750;28;20449;-67
2022/05/05 08:28:30;;;;;;;8.38;3.65;;;17.70;67.10;;;;;;5091093;28;20123;-68
2022/05/05 08:30:56;;;;;;;6.32;3.90;;;17.90;65.10;;;;;;5092128;28;20341;-68
2022/05/05 08:33:30;;;;;;;8.95;4.10;;;18.30;65.10;;;;;;5092034;28;20071;-68
2022/05/05 08:36:09;;;;;;;10.75;3.63;;;18.60;64.50;;;;;;5073041;28;20071;-68
2022/05/05 08:38:49;;;;;;;7.50;3.70;;;18.80;62.90;;;;;;5070476;28;20060;-68
2022/05/05 08:41:24;;;;;;;9.70;4.15;;;19.10;63.50;;;;;;5069813;28;20392;-68
2022/05/05 08:43:58;;;;;;;9.32;4.35;;;19.20;61.90;;;;;;5091962;28;20062;-68
2022/05/05 08:46:35;;;;;;;5.93;3.60;;;19.30;61.50;;;;;;5090472;28;20115;-68
2022/05/05 08:49:09;;;;;;;8.25;3.97;;;19.30;60.40;;;;;;5089745;28;20067;-68
2022/05/05 08:51:49;;;;;;;6.72;4.35;;;19.20;61.00;;;;;;5072267;28;20051;-68
2022/05/05 08:54:23;;;;;;;8.48;4.07;;;19.10;60.80;;;;;;5090549;28;20520;-68
2022/05/05 08:56:50;;;;;;;6.57;4.32;;;19.20;61.50;;;;;;5072062;28;20055;-68
2022/05/05 08:59:17;;;;;;;7.20;3.80;;;19.30;60.20;;;;;;5092060;28;20514;-68
2022/05/05 09:01:43;;;;;;;5.72;4.00;;;19.30;59.40;;;;;;5074400;28;20517;-68
2022/05/05 09:04:09;;;;;;;6.00;4.22;;;19.50;60.70;;;;;;5092585;28;20048;-68
2022/05/05 09:06:53;;;;;;;6.78;4.40;;;19.80;59.90;;;;;;5091954;28;20048;-69
2022/05/05 09:09:36;;;;;;;6.25;4.90;;;20.10;57.80;;;;;;5091730;28;20503;-68
2022/05/05 09:12:13;;;;;;;7.65;4.68;;;20.20;56.40;;;;;;5091316;28;20047;-68
2022/05/05 09:14:50;;;;;;;8.88;4.65;;;20.50;57.60;;;;;;5071043;28;20078;-68
2022/05/05 09:17:18;;;;;;;7.72;5.10;;;20.70;56.70;;;;;;5074561;28;20123;-68
2022/05/05 09:19:49;;;;;;;8.88;5.50;;;20.90;57.70;;;;;;5068730;28;20044;-69
2022/05/05 09:22:18;;;;;;;7.70;5.25;;;21.20;56.80;;;;;;5089828;28;20392;-68
2022/05/05 09:24:51;;;;;;;9.05;5.43;;;21.20;55.10;;;;;;5072555;28;20138;-69
2022/05/05 09:27:26;;;;;;;8.63;5.25;;;21.10;55.50;;;;;;5091891;28;20067;-68
2022/05/05 09:30:14;;;;;;;10.32;5.10;;;21.20;56.30;;;;;;5092105;28;20055;-68
2022/05/05 09:32:46;;;;;;;10.85;5.40;;;21.50;54.40;;;;;;5091466;28;20040;-69
2022/05/05 09:35:13;;;;;;;9.75;5.40;;;21.60;54.40;;;;;;5090895;28;20119;-68
2022/05/05 09:37:47;;;;;;;7.15;5.25;;;21.70;53.80;;;;;;5074036;28;20052;-68
2022/05/05 09:40:17;;;;;;;8.50;5.53;;;21.60;54.50;;;;;;5073917;28;20048;-68
2022/05/05 09:42:51;;;;;;;9.77;5.45;;;21.40;53.50;;;;;;5090676;28;20502;-69
2022/05/05 09:45:21;;;;;;;6.68;5.20;;;21.40;53.30;;;;;;5091357;28;20039;-68
2022/05/05 09:47:47;;;;;;;11.40;6.68;;;21.40;52.60;;;;;;5088841;28;20390;-68
2022/05/05 09:50:14;;;;;;;7.15;5.75;;;21.20;52.10;;;;;;5053760;28;20623;-69
2022/05/05 09:58:17;;;;;;;8.68;6.10;;;20.60;55.30;;;;;;5086506;28;20407;-69
2022/05/05 10:00:49;;;;;;;8.60;6.03;;;20.70;56.20;;;;;;5072437;28;20127;-69
2022/05/05 10:04:03;;;;;;;10.43;6.13;;;20.90;53.90;;;;;;5070233;28;20044;-69
2022/05/05 10:06:30;;;;;;;10.00;5.80;;;20.80;54.10;;;;;;5055825;28;20499;-69
2022/05/05 10:09:02;;;;;;;7.55;5.65;;;20.80;55.10;;;;;;5089353;28;20032;-69
2022/05/05 10:11:29;;;;;;;8.55;5.65;;;21.00;54.10;;;;;;5092552;28;20852;-69
2022/05/05 10:13:56;;;;;;;9.68;5.55;;;21.00;52.70;;;;;;5090726;28;20480;-69
2022/05/05 10:16:22;;;;;;;11.00;5.65;;;20.90;52.40;;;;;;5073187;28;20047;-69
2022/05/05 10:18:51;;;;;;;11.32;5.97;;;21.00;53.80;;;;;;5090389;28;20101;-69
2022/05/05 10:21:56;;;;;;;8.18;5.93;;;21.10;53.40;;;;;;5089549;28;20043;-69
2022/05/05 10:24:50;;;;;;;8.80;5.45;;;21.30;52.80;;;;;;5060103;28;20113;-69
2022/05/05 10:27:17;;;;;;;10.98;6.03;;;21.40;53.70;;;;;;5069472;28;20165;-69
2022/05/05 10:29:44;;;;;;;9.27;4.93;;;21.70;52.60;;;;;;5090280;28;20036;-69
2022/05/05 10:32:17;;;;;;;7.63;5.20;;;22.00;52.10;;;;;;5090477;28;20049;-69
2022/05/05 10:34:45;;;;;;;5.33;4.80;;;22.20;52.10;;;;;;5089709;28;20494;-69
2022/05/05 10:37:18;;;;;;;8.13;5.10;;;22.50;51.70;;;;;;5088652;28;20681;-69
2022/05/05 10:40:06;;;;;;;7.47;4.63;;;22.70;50.20;;;;;;5070776;28;20105;-69
2022/05/05 10:42:43;;;;;;;8.40;5.32;;;22.70;49.20;;;;;;5055838;28;20052;-69
2022/05/05 10:45:10;;;;;;;9.23;5.03;;;22.70;50.00;;;;;;5088048;28;20046;-69
2022/05/05 10:48:12;;;;;;;7.35;4.70;;;22.60;49.60;;;;;;5089631;28;20455;-69
2022/05/05 10:50:56;;;;;;;5.45;4.60;;;22.50;50.10;;;;;;5069502;28;20515;-68
2022/05/05 10:53:28;;;;;;;5.60;5.03;;;22.40;50.80;;;;;;5090346;28;20083;-68
2022/05/05 10:55:54;;;;;;;5.45;4.43;;;22.50;49.00;;;;;;5090443;28;20650;-69
2022/05/05 10:58:58;;;;;;;7.32;4.35;;;22.40;47.90;;;;;;5071344;28;20101;-69
2022/05/05 11:01:30;;;;;;;5.47;4.57;;;22.20;47.30;;;;;;5084994;28;20118;-69
2022/05/05 11:04:17;;;;;;;6.07;4.20;;;22.10;48.00;;;;;;5069976;28;20396;-69
2022/05/05 11:06:45;;;;;;;5.97;4.22;;;22.10;47.50;;;;;;5088281;28;20437;-69
2022/05/05 11:09:32;;;;;;;7.35;4.47;;;22.10;49.20;;;;;;5089895;28;20535;-69
2022/05/05 11:12:20;;;;;;;7.40;4.50;;;22.10;47.20;;;;;;5070773;28;20056;-69
2022/05/05 11:23:32;;;;;;;7.18;4.75;;;22.00;49.10;;;;;;5089052;28;20564;-70
2022/05/05 11:25:58;;;;;;;5.90;5.25;;;21.80;47.90;;;;;;5090122;28;20051;-69
2022/05/05 11:28:28;;;;;;;6.53;4.68;;;21.60;48.70;;;;;;5068288;28;20043;-68
2022/05/05 11:30:53;;;;;;;6.55;4.07;;;21.50;49.50;;;;;;5089855;28;20043;-69
2022/05/05 11:33:20;;;;;;;8.68;5.30;;;21.60;49.50;;;;;;5070903;28;20034;-66
2022/05/05 11:35:56;;;;;;;6.93;4.70;;;21.70;49.50;;;;;;5089662;28;20043;-66
2022/05/05 11:38:24;;;;;;;8.05;5.43;;;21.60;49.10;;;;;;5088268;28;20035;-66
2022/05/05 11:41:04;;;;;;;6.90;4.95;;;21.50;49.20;;;;;;5055377;28;20123;-65
2022/05/05 11:46:16;;;;;;;7.18;5.45;;;21.50;50.40;;;;;;5088765;28;20445;-66
2022/05/05 11:48:43;;;;;;;8.10;5.75;;;21.70;49.90;;;;;;5084377;28;20036;-66
2022/05/05 11:51:10;;;;;;;7.32;5.65;;;21.80;49.50;;;;;;5087049;28;20093;-67
2022/05/05 11:53:35;;;;;;;8.80;6.03;;;21.80;49.90;;;;;;5085854;28;20040;-67
2022/05/05 11:56:01;;;;;;;10.52;7.07;;;22.00;50.30;;;;;;5089439;28;20082;-67
2022/05/05 12:04:02;;;;;;;9.50;6.47;;;22.10;50.10;;;;;;5077385;28;20063;-67
2022/05/05 12:06:29;;;;;;;7.40;6.28;;;22.30;51.00;;;;;;5084586;28;20123;-66
2022/05/05 12:09:00;;;;;;;8.27;5.40;;;22.60;52.20;;;;;;5084155;28;20044;-66
2022/05/05 12:11:26;;;;;;;8.18;5.95;;;23.10;50.60;;;;;;5085543;28;20043;-66
2022/05/05 12:13:58;;;;;;;8.27;5.88;;;23.50;48.90;;;;;;5090475;28;20071;-67
2022/05/05 12:16:34;;;;;;;7.22;5.30;;;23.60;48.30;;;;;;5085470;28;20055;-66
2022/05/05 12:19:00;;;;;;;7.07;5.00;;;23.40;48.00;;;;;;5069959;28;20139;-66
2022/05/05 12:21:26;;;;;;;6.32;5.10;;;23.30;48.10;;;;;;5089839;28;20162;-66
2022/05/05 12:24:03;;;;;;;7.50;5.57;;;23.40;47.60;;;;;;5090643;28;20082;-66
2022/05/05 12:26:36;;;;;;;12.98;11.15;;;23.70;49.40;;;;;;5068955;28;20056;-67
2022/05/05 12:29:15;;;;;;;6.85;5.30;;;24.30;47.80;;;;;;5089041;28;20078;-66
2022/05/05 12:31:52;;;;;;;6.68;5.53;;;24.70;48.00;;;;;;5051099;28;20052;-67
2022/05/05 12:34:25;;;;;;;9.52;5.43;;;24.90;47.10;;;;;;5088402;28;20036;-67
2022/05/05 12:37:09;;;;;;;5.75;4.50;;;25.10;45.60;;;;;;5070658;28;20040;-67
2022/05/05 12:39:47;;;;;;;8.38;5.05;;;25.40;43.20;;;;;;5088556;28;20032;-68
2022/05/05 12:42:14;;;;;;;7.00;4.43;;;25.50;44.20;;;;;;5068105;28;20040;-68
2022/05/05 12:44:45;;;;;;;4.20;3.80;;;25.80;44.40;;;;;;5080317;28;20684;-69
2022/05/05 12:47:11;;;;;;;23.40;18.13;;;25.90;43.20;;;;;;5067461;28;20539;-67
2022/05/05 12:49:38;;;;;;;5.32;4.47;;;25.50;43.30;;;;;;5084582;28;20090;-69
2022/05/05 12:52:06;;;;;;;6.30;3.80;;;25.70;43.10;;;;;;5089270;28;20404;-70
2022/05/05 13:00:03;;;;;;;6.43;4.38;;;24.60;42.20;;;;;;5089459;28;20119;-69
2022/05/05 13:02:29;;;;;;;6.40;4.18;;;24.20;43.70;;;;;;5086826;28;20093;-70
2022/05/05 13:04:55;;;;;;;6.82;3.70;;;24.00;45.80;;;;;;5070691;28;20423;-70
2022/05/05 13:07:21;;;;;;;4.30;3.58;;;23.80;44.50;;;;;;5054465;28;20438;-70
2022/05/05 13:09:46;;;;;;;5.32;3.50;;;23.50;44.90;;;;;;5071007;28;20044;-70
2022/05/05 13:12:12;;;;;;;6.40;2.75;;;23.50;45.80;;;;;;5089349;28;20071;-70
2022/05/05 13:14:38;;;;;;;4.38;2.88;;;23.40;44.30;;;;;;5075076;28;20040;-70
2022/05/05 13:17:04;;;;;;;4.03;2.60;;;23.40;44.10;;;;;;5074817;28;20097;-70
2022/05/05 13:19:29;;;;;;;3.03;2.53;;;23.00;43.50;;;;;;5092057;28;20420;-70
2022/05/05 13:21:56;;;;;;;6.05;2.97;;;22.70;44.10;;;;;;5058182;28;20079;-69
2022/05/05 13:24:22;;;;;;;5.03;2.40;;;22.50;45.00;;;;;;5090577;28;20504;-70
2022/05/05 13:26:48;;;;;;;5.38;3.65;;;22.40;45.50;;;;;;5057335;28;20051;-69
2022/05/05 13:29:14;;;;;;;6.00;4.65;;;22.30;46.50;;;;;;5088780;28;20028;-70
2022/05/05 13:31:41;;;;;;;7.03;5.05;;;22.00;47.20;;;;;;5092182;28;20470;-70
2022/05/05 13:34:08;;;;;;;6.95;4.72;;;22.00;47.80;;;;;;5072854;28;20063;-70
2022/05/05 13:36:35;;;;;;;6.55;5.15;;;22.00;48.60;;;;;;5093884;28;20036;-69
2022/05/05 13:39:02;;;;;;;7.07;4.38;;;22.10;48.00;;;;;;5091883;28;20337;-70
2022/05/05 13:41:28;;;;;;;5.32;4.15;;;22.10;48.00;;;;;;5091972;28;20044;-70